Time;durP1;ratioP1;P1;durP2;ratioP2;P2;SDS_P1;SDS_P2;PMS_P1;PMS_P2;Temp;Humidity;BMP_temperature;BMP_pressure;BME280_temperature;BME280_humidity;BME280_pressure;Samples;Min_cycle;Max_cycle;Signal;HPM_P1;HPM_P2
2021/10/31 00:01:40;;;;;;;7.40;3.70;;;;;;;;;;5032872;28;20018;-90
2021/10/31 00:04:05;;;;;;;8.93;4.30;;;;;;;;;;5032965;28;20018;-90
2021/10/31 00:06:31;;;;;;;9.82;3.90;;;;;;;;;;5059851;28;20075;-90
2021/10/31 00:08:56;;;;;;;7.63;3.85;;;;;;;;;;5033827;28;20018;-90
2021/10/31 00:11:21;;;;;;;14.02;4.15;;;;;;;;;;5032806;28;20025;-90
2021/10/31 00:13:46;;;;;;;7.93;4.72;;;;;;;;;;5032727;28;20100;-90
2021/10/31 00:16:12;;;;;;;11.15;4.95;;;;;;;;;;5032889;28;20071;-90
2021/10/31 00:18:37;;;;;;;9.23;4.70;;;;;;;;;;5066067;28;20032;-89
2021/10/31 00:21:02;;;;;;;9.57;4.90;;;;;;;;;;5032758;28;20029;-90
2021/10/31 00:23:28;;;;;;;8.30;3.85;;;;;;;;;;5033881;28;20029;-90
2021/10/31 00:25:53;;;;;;;12.00;4.55;;;;;;;;;;5032644;28;20017;-90
2021/10/31 00:28:19;;;;;;;8.98;4.22;;;;;;;;;;5035281;28;20202;-90
2021/10/31 00:30:44;;;;;;;10.95;4.65;;;;;;;;;;5063499;28;20022;-90
2021/10/31 00:33:09;;;;;;;8.20;4.50;;;;;;;;;;5036629;28;20068;-90
2021/10/31 00:35:35;;;;;;;9.27;4.50;;;;;;;;;;5061405;28;20108;-91
2021/10/31 00:38:00;;;;;;;12.88;4.72;;;;;;;;;;5036215;28;20105;-90
2021/10/31 00:40:26;;;;;;;10.02;4.10;;;;;;;;;;5036134;28;20037;-90
2021/10/31 00:42:51;;;;;;;9.98;4.50;;;;;;;;;;5033835;28;20029;-90
2021/10/31 00:45:16;;;;;;;9.25;4.22;;;;;;;;;;5035225;28;20040;-90
2021/10/31 00:47:42;;;;;;;8.82;4.05;;;;;;;;;;5036062;28;20021;-90
2021/10/31 00:50:08;;;;;;;7.22;4.07;;;;;;;;;;5035858;28;20043;-90
2021/10/31 00:52:33;;;;;;;12.32;4.20;;;;;;;;;;5067495;28;20029;-90
2021/10/31 00:54:59;;;;;;;6.68;3.60;;;;;;;;;;5036883;28;20028;-90
2021/10/31 00:57:25;;;;;;;7.03;3.85;;;;;;;;;;5036933;28;20040;-90
2021/10/31 00:59:50;;;;;;;9.38;4.35;;;;;;;;;;5035795;28;20428;-90
2021/10/31 01:02:16;;;;;;;13.68;4.38;;;;;;;;;;5035794;28;20540;-90
2021/10/31 01:04:47;;;;;;;8.32;3.85;;;;;;;;;;5068830;28;20025;-90
2021/10/31 01:07:21;;;;;;;10.98;4.03;;;;;;;;;;5035616;28;20144;-90
2021/10/31 01:09:54;;;;;;;10.75;4.38;;;;;;;;;;5029081;28;20026;-90
2021/10/31 01:12:38;;;;;;;16.73;4.30;;;;;;;;;;5035435;28;20017;-90
2021/10/31 01:15:23;;;;;;;8.25;4.05;;;;;;;;;;5063207;28;20022;-90
2021/10/31 01:17:51;;;;;;;11.95;4.40;;;;;;;;;;5035387;28;20479;-90
2021/10/31 01:20:23;;;;;;;8.45;3.55;;;;;;;;;;5035414;28;20116;-90
2021/10/31 01:23:00;;;;;;;7.40;3.40;;;;;;;;;;5051700;28;20021;-90
2021/10/31 01:25:25;;;;;;;7.40;3.80;;;;;;;;;;5035209;28;20116;-90
2021/10/31 01:28:09;;;;;;;9.50;4.32;;;;;;;;;;5036217;28;20049;-90
2021/10/31 01:30:53;;;;;;;7.40;3.53;;;;;;;;;;5035090;28;20107;-90
2021/10/31 01:33:34;;;;;;;7.28;3.78;;;;;;;;;;5035233;28;20473;-90
2021/10/31 01:36:11;;;;;;;9.63;4.18;;;;;;;;;;5033297;28;20014;-90
2021/10/31 01:38:48;;;;;;;7.43;3.45;;;;;;;;;;5053428;28;20491;-90
2021/10/31 01:41:13;;;;;;;7.72;4.07;;;;;;;;;;5035023;28;20017;-90
2021/10/31 01:43:57;;;;;;;10.77;5.10;;;;;;;;;;5053269;28;20029;-90
2021/10/31 01:46:31;;;;;;;9.60;5.18;;;;;;;;;;5057969;28;20401;-90
2021/10/31 01:48:57;;;;;;;7.15;4.15;;;;;;;;;;5033918;28;20021;-90
2021/10/31 01:51:23;;;;;;;17.25;6.35;;;;;;;;;;5034859;28;20025;-90
2021/10/31 01:53:57;;;;;;;12.52;5.90;;;;;;;;;;5034501;28;20024;-90
2021/10/31 01:56:23;;;;;;;13.23;5.38;;;;;;;;;;5028747;28;20021;-90
2021/10/31 01:58:54;;;;;;;16.35;5.55;;;;;;;;;;5034648;28;20017;-90
2021/10/31 02:01:21;;;;;;;12.80;6.38;;;;;;;;;;5034819;28;20354;-90
2021/10/31 02:03:48;;;;;;;17.00;6.72;;;;;;;;;;5034298;28;20017;-90
2021/10/31 02:06:14;;;;;;;12.20;6.40;;;;;;;;;;5034496;28;20053;-90
2021/10/31 02:08:40;;;;;;;11.88;6.13;;;;;;;;;;5034468;28;20063;-90
2021/10/31 02:11:06;;;;;;;18.08;6.53;;;;;;;;;;5035533;28;20091;-90
2021/10/31 02:13:32;;;;;;;11.88;5.97;;;;;;;;;;5035601;28;20100;-89
2021/10/31 02:15:58;;;;;;;16.13;6.03;;;;;;;;;;5056455;28;20022;-90
2021/10/31 02:18:26;;;;;;;16.65;5.72;;;;;;;;;;5034398;28;20017;-90
2021/10/31 02:20:53;;;;;;;9.13;5.30;;;;;;;;;;5034056;28;20080;-90
2021/10/31 02:23:18;;;;;;;12.88;4.82;;;;;;;;;;5064667;28;20021;-90
2021/10/31 02:25:44;;;;;;;21.63;6.35;;;;;;;;;;5034208;28;20526;-90
2021/10/31 02:28:09;;;;;;;14.52;5.97;;;;;;;;;;5034101;28;20029;-90
2021/10/31 02:30:34;;;;;;;13.55;5.95;;;;;;;;;;5034036;28;20025;-90
2021/10/31 02:32:59;;;;;;;14.57;6.28;;;;;;;;;;5034182;28;20512;-90
2021/10/31 02:35:25;;;;;;;13.65;6.55;;;;;;;;;;5033915;28;20021;-91
2021/10/31 02:37:50;;;;;;;12.00;6.97;;;;;;;;;;5033941;28;20014;-90
2021/10/31 02:40:17;;;;;;;11.63;6.55;;;;;;;;;;5051149;28;20033;-90
2021/10/31 02:42:42;;;;;;;15.43;7.18;;;;;;;;;;5033753;28;20029;-90
2021/10/31 02:45:08;;;;;;;10.85;6.60;;;;;;;;;;5033656;28;20021;-90
2021/10/31 02:47:42;;;;;;;15.35;6.93;;;;;;;;;;5033550;28;20017;-90
2021/10/31 02:50:10;;;;;;;14.45;6.78;;;;;;;;;;5032949;28;20022;-89
2021/10/31 02:52:49;;;;;;;12.30;6.32;;;;;;;;;;5035065;28;20365;-90
2021/10/31 02:55:22;;;;;;;11.88;6.85;;;;;;;;;;5058393;28;20488;-90
2021/10/31 02:57:51;;;;;;;16.20;6.57;;;;;;;;;;5033782;28;20032;-90
2021/10/31 03:00:17;;;;;;;13.15;6.93;;;;;;;;;;5033304;28;20492;-90
2021/10/31 03:02:43;;;;;;;15.85;7.22;;;;;;;;;;5033556;28;20022;-90
2021/10/31 03:05:08;;;;;;;12.20;5.93;;;;;;;;;;5033849;28;20389;-90
2021/10/31 03:07:33;;;;;;;12.82;6.50;;;;;;;;;;5033535;28;20052;-90
2021/10/31 03:09:59;;;;;;;13.82;6.70;;;;;;;;;;5033355;28;20029;-91
2021/10/31 03:12:24;;;;;;;13.88;6.53;;;;;;;;;;5033288;28;20534;-90
2021/10/31 03:14:49;;;;;;;15.57;7.30;;;;;;;;;;5032277;28;20022;-90
2021/10/31 03:17:14;;;;;;;11.52;7.00;;;;;;;;;;5056901;28;20021;-90
2021/10/31 03:19:40;;;;;;;14.55;6.75;;;;;;;;;;5033158;28;20025;-91
2021/10/31 03:22:05;;;;;;;13.32;7.05;;;;;;;;;;5033025;28;20501;-90
2021/10/31 03:24:31;;;;;;;14.18;6.90;;;;;;;;;;5033366;28;20053;-91
2021/10/31 03:26:56;;;;;;;12.52;6.45;;;;;;;;;;5033281;28;20369;-90
2021/10/31 03:29:24;;;;;;;12.98;6.45;;;;;;;;;;5033121;28;20037;-90
2021/10/31 03:31:49;;;;;;;12.30;6.65;;;;;;;;;;5032750;28;20075;-90
2021/10/31 03:34:14;;;;;;;17.40;6.93;;;;;;;;;;5033045;28;20053;-90
2021/10/31 03:36:40;;;;;;;17.25;6.75;;;;;;;;;;5032766;28;20453;-90
2021/10/31 03:39:05;;;;;;;9.90;5.15;;;;;;;;;;5033016;28;20025;-90
2021/10/31 03:41:30;;;;;;;10.60;6.57;;;;;;;;;;5032589;28;20477;-90
2021/10/31 03:43:56;;;;;;;10.95;6.07;;;;;;;;;;5058118;28;20078;-90
2021/10/31 03:46:21;;;;;;;11.98;6.32;;;;;;;;;;5032692;28;20048;-91
2021/10/31 03:48:47;;;;;;;12.18;6.35;;;;;;;;;;5032537;28;20116;-90
2021/10/31 03:51:12;;;;;;;11.88;5.65;;;;;;;;;;5032757;28;20052;-90
2021/10/31 03:53:37;;;;;;;11.65;6.47;;;;;;;;;;5032655;28;20048;-90
2021/10/31 03:56:02;;;;;;;10.80;5.78;;;;;;;;;;5033680;28;20544;-90
2021/10/31 03:58:28;;;;;;;14.00;5.90;;;;;;;;;;5032666;28;20071;-90
2021/10/31 04:00:53;;;;;;;8.13;4.78;;;;;;;;;;5055049;28;20027;-91
2021/10/31 04:03:18;;;;;;;13.98;5.60;;;;;;;;;;5032673;28;20017;-90
2021/10/31 04:05:43;;;;;;;10.35;5.30;;;;;;;;;;5031983;28;20017;-91
2021/10/31 04:08:09;;;;;;;11.55;4.68;;;;;;;;;;5032551;28;20026;-90
2021/10/31 04:10:34;;;;;;;11.77;5.22;;;;;;;;;;5033366;28;20024;-90
2021/10/31 04:12:59;;;;;;;9.50;5.32;;;;;;;;;;5032417;28;20052;-90
2021/10/31 04:15:26;;;;;;;10.25;4.70;;;;;;;;;;5032577;28;20025;-90
2021/10/31 04:17:51;;;;;;;11.80;4.97;;;;;;;;;;5032821;28;20397;-90
2021/10/31 04:20:16;;;;;;;7.35;4.20;;;;;;;;;;5033517;28;20021;-91
2021/10/31 04:22:42;;;;;;;11.38;3.70;;;;;;;;;;5032305;28;20373;-91
2021/10/31 04:25:08;;;;;;;11.43;5.00;;;;;;;;;;5032353;28;20022;-90
2021/10/31 04:27:33;;;;;;;8.55;4.38;;;;;;;;;;5032297;28;20083;-91
2021/10/31 04:29:59;;;;;;;9.25;5.30;;;;;;;;;;5032275;28;20026;-90
2021/10/31 04:32:24;;;;;;;18.33;4.82;;;;;;;;;;5033707;28;20380;-91
2021/10/31 04:34:50;;;;;;;9.00;4.55;;;;;;;;;;5032206;28;20025;-90
2021/10/31 04:37:15;;;;;;;7.40;4.22;;;;;;;;;;5032188;28;20018;-93
2021/10/31 04:39:41;;;;;;;6.43;3.85;;;;;;;;;;5029661;28;20539;-91
2021/10/31 04:42:07;;;;;;;8.90;4.20;;;;;;;;;;5054579;28;20029;-92
2021/10/31 04:44:33;;;;;;;7.53;4.40;;;;;;;;;;5032177;28;20026;-92
2021/10/31 04:46:59;;;;;;;8.40;4.40;;;;;;;;;;5032482;28;20098;-92
2021/10/31 04:49:24;;;;;;;7.32;3.95;;;;;;;;;;5058810;28;20033;-92
2021/10/31 04:51:49;;;;;;;15.43;4.30;;;;;;;;;;5032134;28;20018;-91
2021/10/31 04:54:15;;;;;;;7.25;3.30;;;;;;;;;;5064943;28;20033;-92
2021/10/31 04:56:40;;;;;;;4.45;2.88;;;;;;;;;;5032168;28;20021;-92
2021/10/31 04:59:05;;;;;;;6.18;3.88;;;;;;;;;;5058022;28;20450;-91
2021/10/31 05:01:30;;;;;;;7.88;4.45;;;;;;;;;;5032077;28;20079;-91
2021/10/31 05:03:55;;;;;;;5.55;2.83;;;;;;;;;;5051360;28;20036;-91
2021/10/31 05:06:21;;;;;;;4.45;2.88;;;;;;;;;;5029988;28;20044;-92
2021/10/31 05:08:46;;;;;;;8.90;3.80;;;;;;;;;;5032137;28;20028;-93
2021/10/31 05:11:11;;;;;;;7.45;2.90;;;;;;;;;;5051725;28;20032;-92
2021/10/31 05:13:37;;;;;;;6.20;2.78;;;;;;;;;;5033358;28;20108;-92
2021/10/31 05:16:02;;;;;;;4.35;2.78;;;;;;;;;;5035744;28;20030;-92
2021/10/31 05:18:27;;;;;;;4.70;3.00;;;;;;;;;;5060919;28;20153;-92
2021/10/31 05:20:53;;;;;;;5.88;2.88;;;;;;;;;;5035254;28;20473;-91
2021/10/31 05:23:18;;;;;;;3.95;2.60;;;;;;;;;;5060613;28;20036;-92
2021/10/31 05:25:43;;;;;;;4.57;2.40;;;;;;;;;;5054569;28;20083;-92
2021/10/31 05:28:08;;;;;;;4.78;2.88;;;;;;;;;;5035409;28;20037;-92
2021/10/31 05:30:33;;;;;;;9.00;2.90;;;;;;;;;;5035219;28;20032;-92
2021/10/31 05:32:59;;;;;;;4.28;2.35;;;;;;;;;;5035269;28;20552;-92
2021/10/31 05:35:24;;;;;;;8.45;2.70;;;;;;;;;;5035182;28;20021;-92
2021/10/31 05:37:57;;;;;;;4.82;2.80;;;;;;;;;;5035033;28;20072;-92
2021/10/31 05:40:22;;;;;;;;;;;;;;;;;;5035718;28;20065;-92
2021/10/31 05:42:47;;;;;;;4.50;2.63;;;;;;;;;;5051550;28;19916;-92
2021/10/31 05:45:12;;;;;;;5.28;2.67;;;;;;;;;;5035108;28;20289;-92
2021/10/31 05:47:38;;;;;;;6.78;3.20;;;;;;;;;;5034916;28;20029;-92
2021/10/31 05:50:05;;;;;;;4.55;2.83;;;;;;;;;;5034689;28;20124;-91
2021/10/31 05:52:30;;;;;;;11.70;3.30;;;;;;;;;;5035474;28;20056;-90
2021/10/31 05:54:56;;;;;;;4.60;2.83;;;;;;;;;;5034481;28;20034;-90
2021/10/31 05:57:21;;;;;;;4.97;2.95;;;;;;;;;;5036324;28;20294;-90
2021/10/31 05:59:46;;;;;;;6.22;3.22;;;;;;;;;;5034444;28;20045;-90
2021/10/31 06:02:11;;;;;;;9.05;3.10;;;;;;;;;;5038678;28;20021;-90
2021/10/31 06:04:39;;;;;;;8.52;3.15;;;;;;;;;;5037870;28;20030;-90
2021/10/31 06:07:04;;;;;;;11.20;4.25;;;;;;;;;;5036882;28;20366;-90
2021/10/31 06:09:30;;;;;;;9.70;3.05;;;;;;;;;;5035352;28;20028;-90
2021/10/31 06:11:55;;;;;;;5.18;3.20;;;;;;;;;;5035410;28;20017;-90
2021/10/31 06:14:20;;;;;;;8.57;3.75;;;;;;;;;;5034776;28;20496;-90
2021/10/31 06:16:46;;;;;;;5.55;3.25;;;;;;;;;;5056639;28;20136;-90
2021/10/31 06:19:11;;;;;;;5.22;3.22;;;;;;;;;;5038215;28;20017;-90
2021/10/31 06:21:36;;;;;;;6.57;3.10;;;;;;;;;;5034150;28;20032;-90
2021/10/31 06:24:01;;;;;;;7.95;3.30;;;;;;;;;;5033346;28;20453;-90
2021/10/31 06:26:26;;;;;;;7.75;3.55;;;;;;;;;;5034567;28;20024;-91
2021/10/31 06:28:51;;;;;;;6.15;3.15;;;;;;;;;;5034117;28;20035;-90
2021/10/31 06:31:17;;;;;;;9.13;2.50;;;;;;;;;;5035174;28;20024;-91
2021/10/31 06:33:42;;;;;;;12.02;3.38;;;;;;;;;;5033956;28;20106;-90
2021/10/31 06:36:08;;;;;;;5.50;2.50;;;;;;;;;;5029264;28;20033;-90
2021/10/31 06:38:33;;;;;;;5.00;2.20;;;;;;;;;;5033748;28;20017;-90
2021/10/31 06:40:58;;;;;;;5.55;3.13;;;;;;;;;;5033956;28;20030;-90
2021/10/31 06:43:23;;;;;;;6.03;3.38;;;;;;;;;;5034784;28;20053;-90
2021/10/31 06:45:49;;;;;;;4.75;2.80;;;;;;;;;;5034898;28;20075;-90
2021/10/31 06:48:14;;;;;;;4.85;2.88;;;;;;;;;;5033460;28;20036;-91
2021/10/31 06:50:39;;;;;;;5.35;3.15;;;;;;;;;;5033576;28;20025;-91
2021/10/31 06:53:04;;;;;;;8.65;3.72;;;;;;;;;;5033320;28;20168;-90
2021/10/31 06:55:30;;;;;;;6.03;3.65;;;;;;;;;;5033396;28;20057;-90
2021/10/31 06:57:55;;;;;;;8.93;3.30;;;;;;;;;;5033430;28;20036;-91
2021/10/31 07:00:21;;;;;;;4.53;2.95;;;;;;;;;;5033107;28;20025;-90
2021/10/31 07:02:46;;;;;;;4.72;2.75;;;;;;;;;;5033542;28;20028;-91
2021/10/31 07:05:11;;;;;;;7.55;3.08;;;;;;;;;;5034390;28;20064;-89
2021/10/31 07:07:37;;;;;;;6.63;2.75;;;;;;;;;;5050025;28;20031;-90
2021/10/31 07:10:03;;;;;;;5.55;3.47;;;;;;;;;;5033034;28;20029;-90
2021/10/31 07:12:28;;;;;;;17.20;3.10;;;;;;;;;;5033933;28;20060;-90
2021/10/31 07:14:53;;;;;;;7.45;3.28;;;;;;;;;;5061341;28;20017;-91
2021/10/31 07:17:19;;;;;;;5.53;3.00;;;;;;;;;;5031564;28;20018;-92
2021/10/31 07:19:44;;;;;;;5.95;3.00;;;;;;;;;;5035446;28;20408;-92
2021/10/31 07:22:10;;;;;;;5.32;2.92;;;;;;;;;;5036355;28;20025;-92
2021/10/31 07:24:35;;;;;;;7.90;3.20;;;;;;;;;;5032667;28;20026;-91
2021/10/31 07:27:00;;;;;;;4.80;2.95;;;;;;;;;;5032643;28;20028;-91
2021/10/31 07:29:26;;;;;;;7.07;2.50;;;;;;;;;;5037195;28;20024;-90
2021/10/31 07:31:52;;;;;;;5.00;2.42;;;;;;;;;;5049461;28;20017;-90
2021/10/31 07:34:18;;;;;;;7.03;2.63;;;;;;;;;;5028576;28;20034;-90
2021/10/31 07:36:43;;;;;;;5.07;2.63;;;;;;;;;;5057120;28;20017;-91
2021/10/31 07:39:09;;;;;;;4.57;2.88;;;;;;;;;;5031431;28;20055;-91
2021/10/31 07:41:35;;;;;;;4.68;2.53;;;;;;;;;;5032662;28;20018;-90
2021/10/31 07:44:00;;;;;;;5.38;2.35;;;;;;;;;;5030438;28;20108;-91
2021/10/31 07:46:25;;;;;;;4.07;2.35;;;;;;;;;;5051250;28;20071;-91
2021/10/31 07:48:51;;;;;;;3.60;2.13;;;;;;;;;;5032591;28;20056;-90
2021/10/31 07:51:16;;;;;;;5.53;2.33;;;;;;;;;;5032590;28;20025;-90
2021/10/31 07:53:42;;;;;;;4.82;2.55;;;;;;;;;;5035090;28;20498;-91
2021/10/31 07:56:10;;;;;;;3.78;1.85;;;;;;;;;;5027057;28;20017;-90
2021/10/31 07:58:36;;;;;;;5.82;2.13;;;;;;;;;;5033425;28;20067;-90
2021/10/31 08:01:01;;;;;;;4.30;1.88;;;;;;;;;;5026937;28;20034;-91
2021/10/31 08:03:26;;;;;;;3.60;1.90;;;;;;;;;;5035965;28;20081;-90
2021/10/31 08:05:52;;;;;;;3.65;1.70;;;;;;;;;;5061612;28;20021;-90
2021/10/31 08:08:17;;;;;;;4.03;2.00;;;;;;;;;;5037782;28;20021;-90
2021/10/31 08:10:44;;;;;;;4.35;1.88;;;;;;;;;;5032178;28;20073;-91
2021/10/31 08:13:17;;;;;;;5.07;1.95;;;;;;;;;;5031492;28;20017;-91
2021/10/31 08:15:42;;;;;;;5.28;1.80;;;;;;;;;;5063962;28;20527;-91
2021/10/31 08:18:08;;;;;;;3.28;1.67;;;;;;;;;;5034831;28;20029;-91
2021/10/31 08:20:34;;;;;;;5.07;2.10;;;;;;;;;;5038741;28;20036;-90
2021/10/31 08:22:59;;;;;;;2.20;1.33;;;;;;;;;;5032284;28;20112;-90
2021/10/31 08:25:24;;;;;;;3.78;1.75;;;;;;;;;;5036232;28;20102;-91
2021/10/31 08:27:50;;;;;;;4.75;1.95;;;;;;;;;;5032597;28;20028;-90
2021/10/31 08:30:15;;;;;;;2.50;1.48;;;;;;;;;;5065734;28;20037;-90
2021/10/31 08:32:46;;;;;;;4.07;1.83;;;;;;;;;;5032018;28;20041;-91
2021/10/31 08:35:11;;;;;;;3.25;1.50;;;;;;;;;;5065002;28;20492;-91
2021/10/31 08:37:36;;;;;;;6.65;1.52;;;;;;;;;;5057199;28;20017;-90
2021/10/31 08:40:02;;;;;;;3.20;1.52;;;;;;;;;;5031815;28;20481;-90
2021/10/31 08:42:27;;;;;;;4.28;1.55;;;;;;;;;;5031902;28;20116;-89
2021/10/31 08:44:53;;;;;;;3.70;1.50;;;;;;;;;;5031371;28;20112;-89
2021/10/31 08:47:19;;;;;;;2.35;1.08;;;;;;;;;;5031520;28;20032;-89
2021/10/31 08:49:44;;;;;;;3.65;1.58;;;;;;;;;;5029928;28;20026;-90
2021/10/31 08:52:09;;;;;;;3.88;1.42;;;;;;;;;;5067263;28;20491;-89
2021/10/31 08:54:35;;;;;;;2.28;1.25;;;;;;;;;;5035410;28;20017;-89
2021/10/31 08:57:00;;;;;;;6.25;1.38;;;;;;;;;;5068570;28;20021;-89
2021/10/31 08:59:25;;;;;;;3.42;1.27;;;;;;;;;;5035238;28;20022;-89
2021/10/31 09:01:51;;;;;;;2.03;1.35;;;;;;;;;;5034783;28;20465;-89
2021/10/31 09:04:16;;;;;;;6.57;1.40;;;;;;;;;;5035340;28;20079;-89
2021/10/31 09:06:41;;;;;;;3.67;1.50;;;;;;;;;;5068573;28;20089;-89
2021/10/31 09:09:06;;;;;;;0.47;0.22;;;;;;;;;;5034806;28;20021;-89
2021/10/31 09:11:32;;;;;;;3.65;1.27;;;;;;;;;;5035023;28;20037;-89
2021/10/31 09:13:58;;;;;;;2.03;1.20;;;;;;;;;;5035194;28;20424;-89
2021/10/31 09:16:24;;;;;;;1.95;1.08;;;;;;;;;;5034944;28;20521;-89
2021/10/31 09:18:49;;;;;;;2.03;1.10;;;;;;;;;;5036581;28;20017;-89
2021/10/31 09:21:16;;;;;;;2.83;0.98;;;;;;;;;;5034370;28;20033;-89
2021/10/31 09:23:41;;;;;;;4.25;1.17;;;;;;;;;;5035938;28;20044;-89
2021/10/31 09:26:07;;;;;;;2.95;1.20;;;;;;;;;;5034263;28;20022;-90
2021/10/31 09:28:32;;;;;;;1.30;0.70;;;;;;;;;;5030584;28;20022;-89
2021/10/31 09:30:57;;;;;;;3.00;1.10;;;;;;;;;;5034231;28;20034;-89
2021/10/31 09:33:22;;;;;;;2.60;1.10;;;;;;;;;;5047408;28;20033;-90
2021/10/31 09:35:51;;;;;;;2.08;1.00;;;;;;;;;;5034542;28;20018;-89
2021/10/31 09:38:18;;;;;;;0.88;0.68;;;;;;;;;;5035005;28;20028;-89
2021/10/31 09:40:44;;;;;;;2.33;0.90;;;;;;;;;;5038810;28;20397;-90
2021/10/31 09:43:09;;;;;;;0.65;0.45;;;;;;;;;;5026141;28;20025;-89
2021/10/31 09:45:36;;;;;;;0.63;0.35;;;;;;;;;;5034203;28;20063;-89
2021/10/31 09:48:03;;;;;;;2.10;0.30;;;;;;;;;;5034154;28;20049;-89
2021/10/31 09:50:30;;;;;;;1.30;0.28;;;;;;;;;;5070917;28;20417;-89
2021/10/31 09:52:55;;;;;;;2.55;1.10;;;;;;;;;;5034337;28;20053;-89
2021/10/31 09:55:21;;;;;;;1.80;1.17;;;;;;;;;;5034037;28;20448;-89
2021/10/31 09:57:46;;;;;;;2.83;0.95;;;;;;;;;;5067576;28;20021;-89
2021/10/31 10:00:12;;;;;;;5.80;1.15;;;;;;;;;;5035863;28;20059;-89
2021/10/31 10:05:29;;;;;;;1.52;0.93;;;;;;;;;;5035525;28;20075;-89
2021/10/31 10:07:54;;;;;;;;;;;;;;;;;;5035642;28;20038;-89
2021/10/31 10:10:19;;;;;;;3.08;0.70;;;;;;;;;;5065645;28;19929;-89
2021/10/31 10:12:44;;;;;;;3.13;1.10;;;;;;;;;;5038303;28;20273;-89
2021/10/31 10:15:11;;;;;;;2.08;1.10;;;;;;;;;;5033878;28;20026;-90
2021/10/31 10:17:51;;;;;;;1.85;0.68;;;;;;;;;;5035476;28;20021;-89
2021/10/31 10:20:17;;;;;;;1.33;0.85;;;;;;;;;;5028682;28;20037;-89
2021/10/31 10:22:42;;;;;;;2.33;1.27;;;;;;;;;;5033751;28;20395;-89
2021/10/31 10:25:08;;;;;;;2.75;0.88;;;;;;;;;;5033274;28;20063;-89
2021/10/31 10:27:44;;;;;;;5.18;1.10;;;;;;;;;;5033409;28;20021;-89
2021/10/31 10:30:14;;;;;;;0.93;0.60;;;;;;;;;;5037875;28;20037;-89
2021/10/31 10:32:53;;;;;;;3.33;1.10;;;;;;;;;;5038257;28;20017;-89
2021/10/31 10:35:19;;;;;;;1.52;0.80;;;;;;;;;;5037233;28;20017;-89
2021/10/31 10:37:45;;;;;;;1.30;0.80;;;;;;;;;;5067152;28;20083;-89
2021/10/31 10:40:14;;;;;;;1.27;0.75;;;;;;;;;;5033429;28;20029;-89
2021/10/31 10:42:43;;;;;;;6.57;0.88;;;;;;;;;;5045471;28;20019;-89
2021/10/31 10:45:14;;;;;;;3.47;0.82;;;;;;;;;;5034461;28;20039;-89
2021/10/31 10:47:48;;;;;;;2.30;0.82;;;;;;;;;;5033452;28;20060;-89
2021/10/31 10:50:33;;;;;;;2.65;0.57;;;;;;;;;;5033405;28;20033;-89
2021/10/31 10:52:58;;;;;;;3.30;0.85;;;;;;;;;;5045917;28;20473;-89
2021/10/31 10:55:25;;;;;;;1.00;0.60;;;;;;;;;;5033232;28;20025;-89
2021/10/31 10:57:54;;;;;;;0.90;0.60;;;;;;;;;;5033134;28;20028;-89
2021/10/31 11:00:22;;;;;;;1.27;0.60;;;;;;;;;;5032487;28;20017;-89
2021/10/31 11:02:48;;;;;;;1.45;0.68;;;;;;;;;;5029541;28;20038;-89
2021/10/31 11:05:15;;;;;;;2.42;1.10;;;;;;;;;;5033066;28;20059;-89
2021/10/31 11:07:46;;;;;;;1.10;0.60;;;;;;;;;;5028734;28;20060;-89
2021/10/31 11:10:14;;;;;;;1.20;0.57;;;;;;;;;;5056675;28;20083;-89
2021/10/31 11:12:41;;;;;;;2.53;0.82;;;;;;;;;;5060829;28;20043;-89
2021/10/31 11:15:08;;;;;;;3.75;0.68;;;;;;;;;;5035538;28;20026;-89
2021/10/31 11:17:34;;;;;;;1.13;0.80;;;;;;;;;;5032736;28;20016;-89
2021/10/31 11:20:00;;;;;;;2.35;0.70;;;;;;;;;;5049378;28;20033;-89
2021/10/31 11:22:27;;;;;;;1.13;0.40;;;;;;;;;;5034137;28;20029;-89
2021/10/31 11:24:52;;;;;;;1.63;0.70;;;;;;;;;;5050404;28;20051;-89
2021/10/31 11:27:19;;;;;;;2.25;0.70;;;;;;;;;;5032643;28;20053;-89
2021/10/31 11:29:46;;;;;;;0.32;0.30;;;;;;;;;;5036463;28;20022;-89
2021/10/31 11:32:15;;;;;;;0.93;0.30;;;;;;;;;;5039676;28;20526;-89
2021/10/31 11:34:43;;;;;;;0.10;0.10;;;;;;;;;;5034980;28;20014;-89
2021/10/31 11:37:08;;;;;;;0.55;0.35;;;;;;;;;;5032662;28;20493;-90
2021/10/31 11:39:34;;;;;;;0.95;0.52;;;;;;;;;;5032800;28;20026;-89
2021/10/31 11:42:00;;;;;;;2.97;0.40;;;;;;;;;;5032708;28;20053;-89
2021/10/31 11:44:29;;;;;;;2.22;0.70;;;;;;;;;;5032613;28;20041;-89
2021/10/31 11:46:54;;;;;;;0.80;0.30;;;;;;;;;;5056787;28;20176;-89
2021/10/31 11:49:20;;;;;;;0.95;0.50;;;;;;;;;;5069311;28;20040;-89
2021/10/31 11:51:50;;;;;;;0.00;0.00;;;;;;;;;;5032675;28;20026;-89
2021/10/31 11:54:16;;;;;;;0.10;0.10;;;;;;;;;;5032611;28;20027;-89
2021/10/31 11:56:51;;;;;;;1.23;0.55;;;;;;;;;;5040523;28;20029;-90
2021/10/31 11:59:18;;;;;;;0.10;0.10;;;;;;;;;;5032348;28;20009;-90
2021/10/31 12:01:44;;;;;;;0.73;0.50;;;;;;;;;;5030543;28;20393;-89
2021/10/31 12:04:10;;;;;;;0.35;0.10;;;;;;;;;;5032594;28;20025;-89
2021/10/31 12:06:43;;;;;;;0.95;0.45;;;;;;;;;;5032051;28;20020;-89
2021/10/31 12:09:19;;;;;;;0.77;0.38;;;;;;;;;;5054231;28;20029;-90
2021/10/31 12:11:44;;;;;;;1.90;0.80;;;;;;;;;;5040342;28;20043;-89
2021/10/31 12:14:10;;;;;;;0.28;0.20;;;;;;;;;;5032288;28;20465;-90
2021/10/31 12:16:54;;;;;;;2.15;0.52;;;;;;;;;;5034902;28;20025;-88
2021/10/31 12:19:35;;;;;;;0.32;0.10;;;;;;;;;;5052467;28;20022;-87
2021/10/31 12:22:29;;;;;;;4.32;0.40;;;;;;;;;;5043669;28;20033;-89
2021/10/31 12:25:08;;;;;;;0.32;0.30;;;;;;;;;;5027754;28;20037;-88
2021/10/31 12:27:47;;;;;;;1.20;0.57;;;;;;;;;;5036094;28;20480;-88
2021/10/31 12:30:13;;;;;;;0.40;0.38;;;;;;;;;;5038339;28;20029;-88
2021/10/31 12:32:44;;;;;;;4.00;0.77;;;;;;;;;;5037784;28;20026;-88
2021/10/31 12:35:27;;;;;;;0.85;0.50;;;;;;;;;;5066431;28;20033;-88
2021/10/31 12:37:52;;;;;;;0.88;0.68;;;;;;;;;;5056319;28;20032;-88
2021/10/31 12:40:18;;;;;;;0.85;0.32;;;;;;;;;;5038095;28;20461;-89
2021/10/31 12:42:46;;;;;;;0.20;0.10;;;;;;;;;;5041720;28;20461;-89
2021/10/31 12:45:15;;;;;;;1.83;0.55;;;;;;;;;;5067064;28;20044;-88
2021/10/31 12:47:42;;;;;;;3.30;0.50;;;;;;;;;;5035320;28;20029;-88
2021/10/31 12:50:21;;;;;;;0.75;0.35;;;;;;;;;;5033943;28;20021;-89
2021/10/31 12:52:54;;;;;;;1.15;0.20;;;;;;;;;;5046757;28;20021;-88
2021/10/31 12:55:21;;;;;;;0.77;0.32;;;;;;;;;;5035861;28;20017;-88
2021/10/31 12:57:49;;;;;;;0.40;0.30;;;;;;;;;;5035545;28;20487;-89
2021/10/31 13:00:15;;;;;;;0.20;0.10;;;;;;;;;;5058016;28;20017;-89
2021/10/31 13:02:47;;;;;;;5.40;0.63;;;;;;;;;;5052686;28;20028;-89
2021/10/31 13:05:12;;;;;;;2.40;0.55;;;;;;;;;;5035200;28;20040;-89
2021/10/31 13:07:48;;;;;;;2.97;0.68;;;;;;;;;;5035201;28;20033;-88
2021/10/31 13:10:18;;;;;;;2.05;0.85;;;;;;;;;;5035422;28;20095;-89
2021/10/31 13:12:44;;;;;;;0.05;0.00;;;;;;;;;;5029187;28;20032;-89
2021/10/31 13:15:09;;;;;;;0.20;0.08;;;;;;;;;;5035252;28;20484;-88
2021/10/31 13:17:38;;;;;;;0.40;0.22;;;;;;;;;;5036454;28;20108;-89
2021/10/31 13:20:27;;;;;;;1.30;0.73;;;;;;;;;;5034733;28;20036;-89
2021/10/31 13:23:00;;;;;;;0.68;0.47;;;;;;;;;;5030883;28;20037;-89
2021/10/31 13:25:36;;;;;;;7.20;0.77;;;;;;;;;;5035018;28;20048;-89
2021/10/31 13:28:10;;;;;;;0.60;0.30;;;;;;;;;;5038306;28;20045;-88
2021/10/31 13:30:39;;;;;;;0.60;0.30;;;;;;;;;;5034479;28;20029;-88
2021/10/31 13:33:04;;;;;;;1.42;0.65;;;;;;;;;;5066519;28;20048;-88
2021/10/31 13:35:30;;;;;;;0.30;0.20;;;;;;;;;;5034044;28;20462;-88
2021/10/31 13:37:59;;;;;;;0.00;0.00;;;;;;;;;;5034868;28;20083;-88
2021/10/31 13:40:24;;;;;;;0.40;0.20;;;;;;;;;;5034610;28;20112;-89
2021/10/31 13:42:49;;;;;;;1.92;0.52;;;;;;;;;;5034296;28;20470;-89
2021/10/31 13:45:16;;;;;;;0.00;0.00;;;;;;;;;;5034495;28;20084;-89
2021/10/31 13:47:52;;;;;;;0.80;0.38;;;;;;;;;;5034391;28;20083;-89
2021/10/31 13:50:18;;;;;;;1.20;0.40;;;;;;;;;;5034165;28;20040;-88
2021/10/31 13:52:46;;;;;;;9.18;0.50;;;;;;;;;;5035360;28;20026;-89
2021/10/31 13:55:13;;;;;;;0.00;0.00;;;;;;;;;;5034234;28;20017;-89
2021/10/31 13:57:40;;;;;;;0.45;0.30;;;;;;;;;;5052835;28;20521;-88
2021/10/31 14:00:11;;;;;;;0.80;0.43;;;;;;;;;;5066328;28;20025;-89
2021/10/31 14:02:39;;;;;;;0.20;0.10;;;;;;;;;;5052133;28;20025;-88
2021/10/31 14:05:06;;;;;;;0.38;0.20;;;;;;;;;;5033847;28;20060;-89
2021/10/31 14:07:39;;;;;;;0.40;0.20;;;;;;;;;;5034163;28;20496;-88
2021/10/31 14:10:06;;;;;;;0.47;0.30;;;;;;;;;;5033842;28;20036;-88
2021/10/31 14:12:31;;;;;;;0.10;0.10;;;;;;;;;;5034079;28;20103;-88
2021/10/31 14:15:02;;;;;;;0.25;0.25;;;;;;;;;;5033772;28;20137;-89
2021/10/31 14:17:27;;;;;;;1.25;0.40;;;;;;;;;;5033574;28;20071;-89
2021/10/31 14:19:54;;;;;;;0.60;0.25;;;;;;;;;;5034834;28;20104;-89
2021/10/31 14:22:21;;;;;;;1.00;0.32;;;;;;;;;;5033589;28;20021;-89
2021/10/31 14:24:56;;;;;;;0.63;0.30;;;;;;;;;;5034202;28;20111;-88
2021/10/31 14:27:22;;;;;;;1.23;0.60;;;;;;;;;;5027182;28;20442;-89
2021/10/31 14:29:48;;;;;;;3.40;0.43;;;;;;;;;;5033395;28;20025;-88
2021/10/31 14:32:13;;;;;;;1.67;0.57;;;;;;;;;;5034431;28;20175;-88
2021/10/31 14:34:58;;;;;;;0.77;0.50;;;;;;;;;;5034349;28;20025;-87
2021/10/31 14:37:23;;;;;;;1.13;0.85;;;;;;;;;;5066505;28;20393;-88
2021/10/31 14:39:49;;;;;;;0.98;0.57;;;;;;;;;;5036210;28;20024;-87
2021/10/31 14:42:22;;;;;;;1.90;0.40;;;;;;;;;;5033103;28;20031;-88
2021/10/31 14:44:47;;;;;;;5.65;0.77;;;;;;;;;;5040374;28;20389;-87